sensor_id;sensor_type;location;lat;lon;timestamp;temperature;humidity
49132;DHT22;35149;51.196;6.204;2024-02-28T00:02:02;4.80;68.50
49132;DHT22;35149;51.196;6.204;2024-02-28T00:04:29;4.80;68.40
49132;DHT22;35149;51.196;6.204;2024-02-28T00:06:56;4.80;68.50
49132;DHT22;35149;51.196;6.204;2024-02-28T00:09:23;4.80;68.60
49132;DHT22;35149;51.196;6.204;2024-02-28T00:11:50;4.80;68.70
49132;DHT22;35149;51.196;6.204;2024-02-28T00:14:16;4.80;68.80
49132;DHT22;35149;51.196;6.204;2024-02-28T00:16:44;4.80;68.80
49132;DHT22;35149;51.196;6.204;2024-02-28T00:19:12;4.80;68.80
49132;DHT22;35149;51.196;6.204;2024-02-28T00:21:40;4.80;68.80
49132;DHT22;35149;51.196;6.204;2024-02-28T00:24:07;4.80;68.90
49132;DHT22;35149;51.196;6.204;2024-02-28T00:26:34;4.80;69.20
49132;DHT22;35149;51.196;6.204;2024-02-28T00:29:01;4.90;69.40
49132;DHT22;35149;51.196;6.204;2024-02-28T00:31:28;4.90;69.40
49132;DHT22;35149;51.196;6.204;2024-02-28T00:33:55;5.00;69.50
49132;DHT22;35149;51.196;6.204;2024-02-28T00:36:22;5.00;69.60
49132;DHT22;35149;51.196;6.204;2024-02-28T00:38:49;5.00;70.50
49132;DHT22;35149;51.196;6.204;2024-02-28T00:41:16;5.10;70.10
49132;DHT22;35149;51.196;6.204;2024-02-28T00:43:42;5.10;70.30
49132;DHT22;35149;51.196;6.204;2024-02-28T00:46:09;5.10;70.40
49132;DHT22;35149;51.196;6.204;2024-02-28T00:48:39;5.20;70.60
49132;DHT22;35149;51.196;6.204;2024-02-28T00:51:06;5.20;70.70
49132;DHT22;35149;51.196;6.204;2024-02-28T00:53:34;5.30;70.80
49132;DHT22;35149;51.196;6.204;2024-02-28T00:56:01;5.30;70.90
49132;DHT22;35149;51.196;6.204;2024-02-28T00:58:28;5.30;71.10
49132;DHT22;35149;51.196;6.204;2024-02-28T01:00:57;5.40;71.20
49132;DHT22;35149;51.196;6.204;2024-02-28T01:03:24;5.40;71.40
49132;DHT22;35149;51.196;6.204;2024-02-28T01:05:51;5.40;71.60
49132;DHT22;35149;51.196;6.204;2024-02-28T01:08:18;5.50;71.70
49132;DHT22;35149;51.196;6.204;2024-02-28T01:10:45;5.50;71.80
49132;DHT22;35149;51.196;6.204;2024-02-28T01:13:12;5.50;72.00
49132;DHT22;35149;51.196;6.204;2024-02-28T01:15:40;5.50;72.10
49132;DHT22;35149;51.196;6.204;2024-02-28T01:18:09;5.60;72.40
49132;DHT22;35149;51.196;6.204;2024-02-28T01:20:36;5.60;72.50
49132;DHT22;35149;51.196;6.204;2024-02-28T01:23:03;5.60;72.70
49132;DHT22;35149;51.196;6.204;2024-02-28T01:25:30;5.60;73.40
49132;DHT22;35149;51.196;6.204;2024-02-28T01:27:57;5.60;72.80
49132;DHT22;35149;51.196;6.204;2024-02-28T01:30:26;5.70;73.00
49132;DHT22;35149;51.196;6.204;2024-02-28T01:32:53;5.70;73.00
49132;DHT22;35149;51.196;6.204;2024-02-28T01:35:20;5.80;73.20
49132;DHT22;35149;51.196;6.204;2024-02-28T01:37:47;5.80;73.20
49132;DHT22;35149;51.196;6.204;2024-02-28T01:40:14;5.80;73.20
49132;DHT22;35149;51.196;6.204;2024-02-28T01:42:41;5.80;73.20
49132;DHT22;35149;51.196;6.204;2024-02-28T01:45:13;5.80;73.30
49132;DHT22;35149;51.196;6.204;2024-02-28T01:47:43;5.90;73.60
49132;DHT22;35149;51.196;6.204;2024-02-28T01:50:10;5.90;73.50
49132;DHT22;35149;51.196;6.204;2024-02-28T01:52:39;6.00;73.50
49132;DHT22;35149;51.196;6.204;2024-02-28T01:55:06;5.90;73.40
49132;DHT22;35149;51.196;6.204;2024-02-28T01:57:35;6.00;73.50
49132;DHT22;35149;51.196;6.204;2024-02-28T02:00:06;6.00;73.50
49132;DHT22;35149;51.196;6.204;2024-02-28T02:02:34;6.00;73.50
49132;DHT22;35149;51.196;6.204;2024-02-28T02:05:01;6.00;73.50
49132;DHT22;35149;51.196;6.204;2024-02-28T02:07:28;6.10;73.60
49132;DHT22;35149;51.196;6.204;2024-02-28T02:09:55;6.10;73.50
49132;DHT22;35149;51.196;6.204;2024-02-28T02:12:23;6.10;73.50
49132;DHT22;35149;51.196;6.204;2024-02-28T02:14:49;6.10;73.40
49132;DHT22;35149;51.196;6.204;2024-02-28T02:17:16;6.20;73.40
49132;DHT22;35149;51.196;6.204;2024-02-28T02:19:43;6.20;73.40
49132;DHT22;35149;51.196;6.204;2024-02-28T02:22:13;6.20;73.40
49132;DHT22;35149;51.196;6.204;2024-02-28T02:24:40;6.20;73.40
49132;DHT22;35149;51.196;6.204;2024-02-28T02:27:07;6.20;73.40
49132;DHT22;35149;51.196;6.204;2024-02-28T02:29:34;6.20;73.40
49132;DHT22;35149;51.196;6.204;2024-02-28T02:32:01;6.20;73.50
49132;DHT22;35149;51.196;6.204;2024-02-28T02:34:28;6.30;73.50
49132;DHT22;35149;51.196;6.204;2024-02-28T02:36:54;6.30;73.50
49132;DHT22;35149;51.196;6.204;2024-02-28T02:39:21;6.30;73.60
49132;DHT22;35149;51.196;6.204;2024-02-28T02:41:48;6.30;73.60
49132;DHT22;35149;51.196;6.204;2024-02-28T02:44:15;6.30;73.70
49132;DHT22;35149;51.196;6.204;2024-02-28T02:46:42;6.30;73.70
49132;DHT22;35149;51.196;6.204;2024-02-28T02:49:08;6.30;73.70
49132;DHT22;35149;51.196;6.204;2024-02-28T02:51:35;6.40;73.60
49132;DHT22;35149;51.196;6.204;2024-02-28T02:54:02;6.40;73.60
49132;DHT22;35149;51.196;6.204;2024-02-28T02:56:29;6.30;73.50
49132;DHT22;35149;51.196;6.204;2024-02-28T02:58:55;6.30;73.40
49132;DHT22;35149;51.196;6.204;2024-02-28T03:01:22;6.30;73.50
49132;DHT22;35149;51.196;6.204;2024-02-28T03:03:49;6.30;73.60
49132;DHT22;35149;51.196;6.204;2024-02-28T03:06:16;6.30;73.80
49132;DHT22;35149;51.196;6.204;2024-02-28T03:08:43;6.30;73.90
49132;DHT22;35149;51.196;6.204;2024-02-28T03:11:09;6.30;73.90
49132;DHT22;35149;51.196;6.204;2024-02-28T03:13:37;6.20;73.90
49132;DHT22;35149;51.196;6.204;2024-02-28T03:16:04;6.20;74.10
49132;DHT22;35149;51.196;6.204;2024-02-28T03:18:31;6.20;74.10
49132;DHT22;35149;51.196;6.204;2024-02-28T03:20:58;6.20;74.20
49132;DHT22;35149;51.196;6.204;2024-02-28T03:23:25;6.20;74.20
49132;DHT22;35149;51.196;6.204;2024-02-28T03:25:52;6.20;74.10
49132;DHT22;35149;51.196;6.204;2024-02-28T03:28:19;6.20;74.00
49132;DHT22;35149;51.196;6.204;2024-02-28T03:30:45;6.20;73.90
49132;DHT22;35149;51.196;6.204;2024-02-28T03:33:12;6.20;74.10
49132;DHT22;35149;51.196;6.204;2024-02-28T03:35:39;6.10;74.20
49132;DHT22;35149;51.196;6.204;2024-02-28T03:38:06;6.10;74.40
49132;DHT22;35149;51.196;6.204;2024-02-28T03:40:32;6.10;74.30
49132;DHT22;35149;51.196;6.204;2024-02-28T03:42:59;6.10;74.20
49132;DHT22;35149;51.196;6.204;2024-02-28T03:45:29;6.10;74.20
49132;DHT22;35149;51.196;6.204;2024-02-28T03:47:56;6.10;74.40
49132;DHT22;35149;51.196;6.204;2024-02-28T03:50:23;6.10;74.40
49132;DHT22;35149;51.196;6.204;2024-02-28T03:52:50;6.10;74.60
49132;DHT22;35149;51.196;6.204;2024-02-28T03:55:17;6.00;74.50
49132;DHT22;35149;51.196;6.204;2024-02-28T03:57:47;6.00;74.70
49132;DHT22;35149;51.196;6.204;2024-02-28T04:00:14;6.00;74.90
49132;DHT22;35149;51.196;6.204;2024-02-28T04:02:41;6.00;74.90
49132;DHT22;35149;51.196;6.204;2024-02-28T04:05:08;6.00;75.00
49132;DHT22;35149;51.196;6.204;2024-02-28T04:07:35;6.00;75.00
49132;DHT22;35149;51.196;6.204;2024-02-28T04:10:02;6.00;75.10
49132;DHT22;35149;51.196;6.204;2024-02-28T04:12:31;6.00;75.20
49132;DHT22;35149;51.196;6.204;2024-02-28T04:14:58;6.10;75.90
49132;DHT22;35149;51.196;6.204;2024-02-28T04:17:25;6.10;75.30
49132;DHT22;35149;51.196;6.204;2024-02-28T04:19:52;6.10;75.20
49132;DHT22;35149;51.196;6.204;2024-02-28T04:22:18;6.10;75.20
49132;DHT22;35149;51.196;6.204;2024-02-28T04:24:45;6.10;75.20
49132;DHT22;35149;51.196;6.204;2024-02-28T04:27:12;6.10;75.40
49132;DHT22;35149;51.196;6.204;2024-02-28T04:29:39;6.10;75.40
49132;DHT22;35149;51.196;6.204;2024-02-28T04:32:06;6.10;75.40
49132;DHT22;35149;51.196;6.204;2024-02-28T04:34:33;6.10;75.40
49132;DHT22;35149;51.196;6.204;2024-02-28T04:36:59;6.10;75.60
49132;DHT22;35149;51.196;6.204;2024-02-28T04:39:26;6.10;75.70
49132;DHT22;35149;51.196;6.204;2024-02-28T04:41:53;6.10;75.80
49132;DHT22;35149;51.196;6.204;2024-02-28T04:44:20;6.20;75.90
49132;DHT22;35149;51.196;6.204;2024-02-28T04:46:46;6.20;76.00
49132;DHT22;35149;51.196;6.204;2024-02-28T04:49:13;6.20;75.90
49132;DHT22;35149;51.196;6.204;2024-02-28T04:51:40;6.20;75.80
49132;DHT22;35149;51.196;6.204;2024-02-28T04:54:07;6.20;75.80
49132;DHT22;35149;51.196;6.204;2024-02-28T04:56:38;6.20;76.60
49132;DHT22;35149;51.196;6.204;2024-02-28T04:59:05;6.20;76.00
49132;DHT22;35149;51.196;6.204;2024-02-28T05:01:32;6.20;76.00
49132;DHT22;35149;51.196;6.204;2024-02-28T05:03:59;6.20;76.00
49132;DHT22;35149;51.196;6.204;2024-02-28T05:06:26;6.20;76.00
49132;DHT22;35149;51.196;6.204;2024-02-28T05:08:53;6.30;76.10
49132;DHT22;35149;51.196;6.204;2024-02-28T05:11:19;6.30;76.00
49132;DHT22;35149;51.196;6.204;2024-02-28T05:13:46;6.30;76.00
49132;DHT22;35149;51.196;6.204;2024-02-28T05:16:14;6.30;76.00
49132;DHT22;35149;51.196;6.204;2024-02-28T05:18:42;6.30;75.90
49132;DHT22;35149;51.196;6.204;2024-02-28T05:21:08;6.30;75.90
49132;DHT22;35149;51.196;6.204;2024-02-28T05:23:35;6.30;76.00
49132;DHT22;35149;51.196;6.204;2024-02-28T05:26:02;6.30;76.00
49132;DHT22;35149;51.196;6.204;2024-02-28T05:28:30;6.30;75.90
49132;DHT22;35149;51.196;6.204;2024-02-28T05:31:02;6.30;76.00
49132;DHT22;35149;51.196;6.204;2024-02-28T05:33:30;6.30;76.10
49132;DHT22;35149;51.196;6.204;2024-02-28T05:35:57;6.30;76.20
49132;DHT22;35149;51.196;6.204;2024-02-28T05:38:24;6.30;76.20
49132;DHT22;35149;51.196;6.204;2024-02-28T05:40:51;6.30;76.20
49132;DHT22;35149;51.196;6.204;2024-02-28T05:43:17;6.40;76.40
49132;DHT22;35149;51.196;6.204;2024-02-28T05:45:44;6.40;76.40
49132;DHT22;35149;51.196;6.204;2024-02-28T05:48:11;6.40;76.40
49132;DHT22;35149;51.196;6.204;2024-02-28T05:50:38;6.50;76.30
49132;DHT22;35149;51.196;6.204;2024-02-28T05:53:04;6.50;76.30
49132;DHT22;35149;51.196;6.204;2024-02-28T05:55:31;6.50;76.20
49132;DHT22;35149;51.196;6.204;2024-02-28T05:57:58;6.50;76.10
49132;DHT22;35149;51.196;6.204;2024-02-28T06:00:25;6.50;76.00
49132;DHT22;35149;51.196;6.204;2024-02-28T06:02:52;6.50;76.00
49132;DHT22;35149;51.196;6.204;2024-02-28T06:05:19;6.50;76.00
49132;DHT22;35149;51.196;6.204;2024-02-28T06:07:45;6.50;76.00
49132;DHT22;35149;51.196;6.204;2024-02-28T06:10:12;6.60;76.10
49132;DHT22;35149;51.196;6.204;2024-02-28T06:12:39;6.60;76.10
49132;DHT22;35149;51.196;6.204;2024-02-28T06:15:06;6.60;76.00
49132;DHT22;35149;51.196;6.204;2024-02-28T06:17:33;6.60;75.90
49132;DHT22;35149;51.196;6.204;2024-02-28T06:20:00;6.70;75.90
49132;DHT22;35149;51.196;6.204;2024-02-28T06:22:27;6.60;75.80
49132;DHT22;35149;51.196;6.204;2024-02-28T06:24:53;6.60;75.80
49132;DHT22;35149;51.196;6.204;2024-02-28T06:27:20;6.60;75.80
49132;DHT22;35149;51.196;6.204;2024-02-28T06:29:47;6.70;75.80
49132;DHT22;35149;51.196;6.204;2024-02-28T06:32:15;6.70;75.90
49132;DHT22;35149;51.196;6.204;2024-02-28T06:34:42;6.70;75.90
49132;DHT22;35149;51.196;6.204;2024-02-28T06:37:09;6.70;75.70
49132;DHT22;35149;51.196;6.204;2024-02-28T06:39:35;6.70;75.80
49132;DHT22;35149;51.196;6.204;2024-02-28T06:42:02;6.70;75.70
49132;DHT22;35149;51.196;6.204;2024-02-28T06:44:29;6.70;75.70
49132;DHT22;35149;51.196;6.204;2024-02-28T06:46:56;6.70;75.60
49132;DHT22;35149;51.196;6.204;2024-02-28T06:49:22;6.80;75.60
49132;DHT22;35149;51.196;6.204;2024-02-28T06:51:49;6.80;75.60
49132;DHT22;35149;51.196;6.204;2024-02-28T06:54:16;6.70;75.60
49132;DHT22;35149;51.196;6.204;2024-02-28T06:56:43;6.80;75.70
49132;DHT22;35149;51.196;6.204;2024-02-28T06:59:09;6.80;75.70
49132;DHT22;35149;51.196;6.204;2024-02-28T07:01:36;6.80;75.70
49132;DHT22;35149;51.196;6.204;2024-02-28T07:04:03;6.80;75.70
49132;DHT22;35149;51.196;6.204;2024-02-28T07:06:30;6.90;75.70
49132;DHT22;35149;51.196;6.204;2024-02-28T07:08:57;6.80;75.80
49132;DHT22;35149;51.196;6.204;2024-02-28T07:11:24;6.90;76.00
49132;DHT22;35149;51.196;6.204;2024-02-28T07:13:50;6.90;76.00
49132;DHT22;35149;51.196;6.204;2024-02-28T07:16:18;7.00;76.00
49132;DHT22;35149;51.196;6.204;2024-02-28T07:18:44;7.00;75.90
49132;DHT22;35149;51.196;6.204;2024-02-28T07:21:11;7.00;75.70
49132;DHT22;35149;51.196;6.204;2024-02-28T07:23:41;7.00;75.70
49132;DHT22;35149;51.196;6.204;2024-02-28T07:26:08;7.00;75.90
49132;DHT22;35149;51.196;6.204;2024-02-28T07:28:48;7.10;75.90
49132;DHT22;35149;51.196;6.204;2024-02-28T07:31:18;7.10;75.90
49132;DHT22;35149;51.196;6.204;2024-02-28T07:33:45;7.10;75.90
49132;DHT22;35149;51.196;6.204;2024-02-28T07:36:12;7.20;75.90
49132;DHT22;35149;51.196;6.204;2024-02-28T07:38:41;7.20;75.70
49132;DHT22;35149;51.196;6.204;2024-02-28T07:41:08;7.30;75.70
49132;DHT22;35149;51.196;6.204;2024-02-28T07:43:35;7.30;75.70
49132;DHT22;35149;51.196;6.204;2024-02-28T07:46:08;7.30;75.60
49132;DHT22;35149;51.196;6.204;2024-02-28T07:48:36;7.40;75.70
49132;DHT22;35149;51.196;6.204;2024-02-28T07:51:06;7.40;75.60
49132;DHT22;35149;51.196;6.204;2024-02-28T07:53:33;7.40;75.50
49132;DHT22;35149;51.196;6.204;2024-02-28T07:56:00;7.50;75.30
49132;DHT22;35149;51.196;6.204;2024-02-28T07:58:27;7.50;75.40
49132;DHT22;35149;51.196;6.204;2024-02-28T08:00:53;7.50;75.40
49132;DHT22;35149;51.196;6.204;2024-02-28T08:03:20;7.50;75.50
49132;DHT22;35149;51.196;6.204;2024-02-28T08:05:47;7.60;75.60
49132;DHT22;35149;51.196;6.204;2024-02-28T08:08:15;7.60;75.70
49132;DHT22;35149;51.196;6.204;2024-02-28T08:10:41;7.70;75.70
49132;DHT22;35149;51.196;6.204;2024-02-28T08:13:09;7.70;75.80
49132;DHT22;35149;51.196;6.204;2024-02-28T08:15:35;7.80;75.80
49132;DHT22;35149;51.196;6.204;2024-02-28T08:18:03;7.80;75.60
49132;DHT22;35149;51.196;6.204;2024-02-28T08:20:30;7.90;75.50
49132;DHT22;35149;51.196;6.204;2024-02-28T08:22:56;7.90;75.30
49132;DHT22;35149;51.196;6.204;2024-02-28T08:25:24;8.00;75.30
49132;DHT22;35149;51.196;6.204;2024-02-28T08:27:51;8.00;75.30
49132;DHT22;35149;51.196;6.204;2024-02-28T08:30:18;8.10;75.20
49132;DHT22;35149;51.196;6.204;2024-02-28T08:32:45;8.10;75.20
49132;DHT22;35149;51.196;6.204;2024-02-28T08:35:11;8.10;75.10
49132;DHT22;35149;51.196;6.204;2024-02-28T08:37:39;8.10;75.00
49132;DHT22;35149;51.196;6.204;2024-02-28T08:40:06;8.20;75.00
49132;DHT22;35149;51.196;6.204;2024-02-28T08:42:33;8.30;75.20
49132;DHT22;35149;51.196;6.204;2024-02-28T08:45:00;8.30;75.20
49132;DHT22;35149;51.196;6.204;2024-02-28T08:47:27;8.30;75.20
49132;DHT22;35149;51.196;6.204;2024-02-28T08:49:54;8.40;75.30
49132;DHT22;35149;51.196;6.204;2024-02-28T08:52:21;8.40;75.00
49132;DHT22;35149;51.196;6.204;2024-02-28T08:54:48;8.50;74.80
49132;DHT22;35149;51.196;6.204;2024-02-28T08:57:15;8.50;74.70
49132;DHT22;35149;51.196;6.204;2024-02-28T08:59:42;8.60;74.80
49132;DHT22;35149;51.196;6.204;2024-02-28T09:02:09;8.60;74.70
49132;DHT22;35149;51.196;6.204;2024-02-28T09:04:37;8.70;74.60
49132;DHT22;35149;51.196;6.204;2024-02-28T09:07:04;8.70;74.50
49132;DHT22;35149;51.196;6.204;2024-02-28T09:09:31;8.80;74.50
49132;DHT22;35149;51.196;6.204;2024-02-28T09:12:00;8.80;74.50
49132;DHT22;35149;51.196;6.204;2024-02-28T09:14:29;8.80;74.50
49132;DHT22;35149;51.196;6.204;2024-02-28T09:16:56;8.80;74.50
49132;DHT22;35149;51.196;6.204;2024-02-28T09:19:30;8.90;74.50
49132;DHT22;35149;51.196;6.204;2024-02-28T09:21:58;8.90;74.40
49132;DHT22;35149;51.196;6.204;2024-02-28T09:24:26;8.90;74.50
49132;DHT22;35149;51.196;6.204;2024-02-28T09:26:53;9.00;74.50
49132;DHT22;35149;51.196;6.204;2024-02-28T09:29:20;9.00;74.40
49132;DHT22;35149;51.196;6.204;2024-02-28T09:31:46;9.10;74.40
49132;DHT22;35149;51.196;6.204;2024-02-28T09:34:13;9.20;74.30
49132;DHT22;35149;51.196;6.204;2024-02-28T09:36:44;9.30;74.20
49132;DHT22;35149;51.196;6.204;2024-02-28T09:39:17;9.30;74.20
49132;DHT22;35149;51.196;6.204;2024-02-28T09:41:46;9.30;74.20
49132;DHT22;35149;51.196;6.204;2024-02-28T09:44:14;9.40;74.40
49132;DHT22;35149;51.196;6.204;2024-02-28T09:46:41;9.50;74.40
49132;DHT22;35149;51.196;6.204;2024-02-28T09:49:09;9.60;74.30
49132;DHT22;35149;51.196;6.204;2024-02-28T09:51:37;9.60;74.00
49132;DHT22;35149;51.196;6.204;2024-02-28T09:54:04;9.80;73.70
49132;DHT22;35149;51.196;6.204;2024-02-28T09:56:32;9.80;73.20
49132;DHT22;35149;51.196;6.204;2024-02-28T09:58:59;9.90;72.70
49132;DHT22;35149;51.196;6.204;2024-02-28T10:01:26;9.90;72.60
49132;DHT22;35149;51.196;6.204;2024-02-28T10:03:54;9.90;72.50
49132;DHT22;35149;51.196;6.204;2024-02-28T10:06:21;9.90;72.60
49132;DHT22;35149;51.196;6.204;2024-02-28T10:08:49;10.00;72.80
49132;DHT22;35149;51.196;6.204;2024-02-28T10:11:23;10.00;72.70
49132;DHT22;35149;51.196;6.204;2024-02-28T10:13:50;10.10;72.50
49132;DHT22;35149;51.196;6.204;2024-02-28T10:16:19;10.10;72.30
49132;DHT22;35149;51.196;6.204;2024-02-28T10:18:45;10.10;71.90
49132;DHT22;35149;51.196;6.204;2024-02-28T10:21:13;10.20;72.10
49132;DHT22;35149;51.196;6.204;2024-02-28T10:23:41;10.20;72.00
49132;DHT22;35149;51.196;6.204;2024-02-28T10:26:12;10.30;71.90
49132;DHT22;35149;51.196;6.204;2024-02-28T10:28:40;10.30;71.80
49132;DHT22;35149;51.196;6.204;2024-02-28T10:31:07;10.30;71.70
49132;DHT22;35149;51.196;6.204;2024-02-28T10:33:34;10.40;71.70
49132;DHT22;35149;51.196;6.204;2024-02-28T10:36:03;10.40;71.40
49132;DHT22;35149;51.196;6.204;2024-02-28T10:38:31;10.50;71.40
49132;DHT22;35149;51.196;6.204;2024-02-28T10:41:02;10.50;71.30
49132;DHT22;35149;51.196;6.204;2024-02-28T10:43:30;10.50;71.10
49132;DHT22;35149;51.196;6.204;2024-02-28T10:45:58;10.60;71.30
49132;DHT22;35149;51.196;6.204;2024-02-28T10:48:45;10.60;71.10
49132;DHT22;35149;51.196;6.204;2024-02-28T10:51:15;10.70;71.20
49132;DHT22;35149;51.196;6.204;2024-02-28T10:53:43;10.80;71.30
49132;DHT22;35149;51.196;6.204;2024-02-28T10:56:14;10.90;71.60
49132;DHT22;35149;51.196;6.204;2024-02-28T10:58:52;10.90;71.40
49132;DHT22;35149;51.196;6.204;2024-02-28T11:01:21;11.00;71.00
49132;DHT22;35149;51.196;6.204;2024-02-28T11:03:50;11.10;70.80
49132;DHT22;35149;51.196;6.204;2024-02-28T11:06:21;11.20;70.40
49132;DHT22;35149;51.196;6.204;2024-02-28T11:08:49;11.30;70.30
49132;DHT22;35149;51.196;6.204;2024-02-28T11:11:21;11.30;70.30
49132;DHT22;35149;51.196;6.204;2024-02-28T11:13:55;11.40;69.80
49132;DHT22;35149;51.196;6.204;2024-02-28T11:16:30;11.40;69.30
49132;DHT22;35149;51.196;6.204;2024-02-28T11:18:58;11.40;69.00
49132;DHT22;35149;51.196;6.204;2024-02-28T11:21:26;11.40;69.10
49132;DHT22;35149;51.196;6.204;2024-02-28T11:23:57;11.40;69.10
49132;DHT22;35149;51.196;6.204;2024-02-28T11:26:24;11.50;69.00
49132;DHT22;35149;51.196;6.204;2024-02-28T11:28:52;11.50;69.20
49132;DHT22;35149;51.196;6.204;2024-02-28T11:31:20;11.50;69.20
49132;DHT22;35149;51.196;6.204;2024-02-28T11:33:47;11.40;68.90
49132;DHT22;35149;51.196;6.204;2024-02-28T11:36:14;11.40;68.90
49132;DHT22;35149;51.196;6.204;2024-02-28T11:38:41;11.50;68.90
49132;DHT22;35149;51.196;6.204;2024-02-28T11:41:08;11.50;68.70
49132;DHT22;35149;51.196;6.204;2024-02-28T11:43:35;11.50;68.60
49132;DHT22;35149;51.196;6.204;2024-02-28T11:46:17;11.50;68.80
49132;DHT22;35149;51.196;6.204;2024-02-28T11:48:45;11.60;68.70
49132;DHT22;35149;51.196;6.204;2024-02-28T11:51:12;11.60;68.60
49132;DHT22;35149;51.196;6.204;2024-02-28T11:53:39;11.60;68.20
49132;DHT22;35149;51.196;6.204;2024-02-28T11:56:07;11.70;68.40
49132;DHT22;35149;51.196;6.204;2024-02-28T11:58:34;11.80;68.40
49132;DHT22;35149;51.196;6.204;2024-02-28T12:01:01;11.90;68.00
49132;DHT22;35149;51.196;6.204;2024-02-28T12:03:28;11.90;67.80
49132;DHT22;35149;51.196;6.204;2024-02-28T12:05:55;12.00;67.60
49132;DHT22;35149;51.196;6.204;2024-02-28T12:08:22;12.10;67.40
49132;DHT22;35149;51.196;6.204;2024-02-28T12:10:52;12.10;67.40
49132;DHT22;35149;51.196;6.204;2024-02-28T12:13:19;12.30;67.50
49132;DHT22;35149;51.196;6.204;2024-02-28T12:15:46;12.30;67.20
49132;DHT22;35149;51.196;6.204;2024-02-28T12:18:15;12.40;66.80
49132;DHT22;35149;51.196;6.204;2024-02-28T12:20:42;12.40;66.50
49132;DHT22;35149;51.196;6.204;2024-02-28T12:23:09;12.50;66.60
49132;DHT22;35149;51.196;6.204;2024-02-28T12:25:36;12.60;66.20
49132;DHT22;35149;51.196;6.204;2024-02-28T12:28:05;12.70;66.10
49132;DHT22;35149;51.196;6.204;2024-02-28T12:30:40;12.70;66.00
49132;DHT22;35149;51.196;6.204;2024-02-28T12:33:09;12.80;65.60
49132;DHT22;35149;51.196;6.204;2024-02-28T12:35:38;12.90;65.50
49132;DHT22;35149;51.196;6.204;2024-02-28T12:38:04;12.90;65.20
49132;DHT22;35149;51.196;6.204;2024-02-28T12:40:31;13.00;65.20
49132;DHT22;35149;51.196;6.204;2024-02-28T12:42:58;13.10;64.60
49132;DHT22;35149;51.196;6.204;2024-02-28T12:45:25;13.20;64.00
49132;DHT22;35149;51.196;6.204;2024-02-28T12:47:52;13.20;64.00
49132;DHT22;35149;51.196;6.204;2024-02-28T12:50:20;13.30;63.80
49132;DHT22;35149;51.196;6.204;2024-02-28T12:52:48;13.40;63.50
49132;DHT22;35149;51.196;6.204;2024-02-28T12:55:20;13.40;63.40
49132;DHT22;35149;51.196;6.204;2024-02-28T12:57:49;13.50;63.10
49132;DHT22;35149;51.196;6.204;2024-02-28T13:00:17;13.60;62.50
49132;DHT22;35149;51.196;6.204;2024-02-28T13:02:44;13.60;62.50
49132;DHT22;35149;51.196;6.204;2024-02-28T13:05:11;13.70;62.20
49132;DHT22;35149;51.196;6.204;2024-02-28T13:07:41;13.80;62.00
49132;DHT22;35149;51.196;6.204;2024-02-28T13:10:08;13.90;61.70
49132;DHT22;35149;51.196;6.204;2024-02-28T13:12:37;13.90;61.40
49132;DHT22;35149;51.196;6.204;2024-02-28T13:15:04;14.00;61.10
49132;DHT22;35149;51.196;6.204;2024-02-28T13:17:31;14.00;61.70
49132;DHT22;35149;51.196;6.204;2024-02-28T13:19:58;14.10;60.90
49132;DHT22;35149;51.196;6.204;2024-02-28T13:22:25;14.10;60.30
49132;DHT22;35149;51.196;6.204;2024-02-28T13:24:52;14.10;60.10
49132;DHT22;35149;51.196;6.204;2024-02-28T13:27:19;14.10;60.10
49132;DHT22;35149;51.196;6.204;2024-02-28T13:29:46;14.10;60.20
49132;DHT22;35149;51.196;6.204;2024-02-28T13:32:13;14.20;60.40
49132;DHT22;35149;51.196;6.204;2024-02-28T13:34:40;14.20;60.40
49132;DHT22;35149;51.196;6.204;2024-02-28T13:37:07;14.30;60.40
49132;DHT22;35149;51.196;6.204;2024-02-28T13:39:33;14.40;59.80
49132;DHT22;35149;51.196;6.204;2024-02-28T13:42:01;14.50;59.60
49132;DHT22;35149;51.196;6.204;2024-02-28T13:44:30;14.50;59.90
49132;DHT22;35149;51.196;6.204;2024-02-28T13:46:56;14.60;59.30
49132;DHT22;35149;51.196;6.204;2024-02-28T13:49:23;14.60;59.20
49132;DHT22;35149;51.196;6.204;2024-02-28T13:51:50;14.70;59.20
49132;DHT22;35149;51.196;6.204;2024-02-28T13:54:17;14.70;58.70
49132;DHT22;35149;51.196;6.204;2024-02-28T13:56:44;14.70;58.50
49132;DHT22;35149;51.196;6.204;2024-02-28T13:59:11;14.80;59.00
49132;DHT22;35149;51.196;6.204;2024-02-28T14:01:38;14.80;58.30
49132;DHT22;35149;51.196;6.204;2024-02-28T14:04:05;14.80;58.30
49132;DHT22;35149;51.196;6.204;2024-02-28T14:06:32;14.80;58.50
49132;DHT22;35149;51.196;6.204;2024-02-28T14:08:58;14.80;58.20
49132;DHT22;35149;51.196;6.204;2024-02-28T14:11:25;14.90;58.10
49132;DHT22;35149;51.196;6.204;2024-02-28T14:13:52;14.90;58.10
49132;DHT22;35149;51.196;6.204;2024-02-28T14:16:19;15.10;58.50
49132;DHT22;35149;51.196;6.204;2024-02-28T14:18:46;15.20;58.60
49132;DHT22;35149;51.196;6.204;2024-02-28T14:21:13;15.30;58.40
49132;DHT22;35149;51.196;6.204;2024-02-28T14:23:40;15.60;58.70
49132;DHT22;35149;51.196;6.204;2024-02-28T14:26:08;15.90;58.40
49132;DHT22;35149;51.196;6.204;2024-02-28T14:28:34;16.20;58.00
49132;DHT22;35149;51.196;6.204;2024-02-28T14:31:01;16.50;57.40
49132;DHT22;35149;51.196;6.204;2024-02-28T14:33:28;16.70;56.60
49132;DHT22;35149;51.196;6.204;2024-02-28T14:35:55;16.90;55.50
49132;DHT22;35149;51.196;6.204;2024-02-28T14:38:22;17.00;55.30
49132;DHT22;35149;51.196;6.204;2024-02-28T14:40:49;17.10;54.80
49132;DHT22;35149;51.196;6.204;2024-02-28T14:43:15;17.10;54.40
49132;DHT22;35149;51.196;6.204;2024-02-28T14:45:42;17.10;54.00
49132;DHT22;35149;51.196;6.204;2024-02-28T14:48:11;17.10;53.80
49132;DHT22;35149;51.196;6.204;2024-02-28T14:50:38;17.10;53.70
49132;DHT22;35149;51.196;6.204;2024-02-28T14:53:05;16.90;53.50
49132;DHT22;35149;51.196;6.204;2024-02-28T14:55:31;16.80;53.10
49132;DHT22;35149;51.196;6.204;2024-02-28T14:57:58;16.70;53.20
49132;DHT22;35149;51.196;6.204;2024-02-28T15:00:27;16.50;53.10
49132;DHT22;35149;51.196;6.204;2024-02-28T15:02:54;16.30;53.30
49132;DHT22;35149;51.196;6.204;2024-02-28T15:05:21;16.20;53.70
49132;DHT22;35149;51.196;6.204;2024-02-28T15:07:48;16.00;53.90
49132;DHT22;35149;51.196;6.204;2024-02-28T15:10:15;15.90;54.50
49132;DHT22;35149;51.196;6.204;2024-02-28T15:12:42;15.80;54.50
49132;DHT22;35149;51.196;6.204;2024-02-28T15:15:09;15.70;54.90
49132;DHT22;35149;51.196;6.204;2024-02-28T15:17:37;15.60;54.80
49132;DHT22;35149;51.196;6.204;2024-02-28T15:20:04;15.60;54.90
49132;DHT22;35149;51.196;6.204;2024-02-28T15:22:34;15.50;55.20
49132;DHT22;35149;51.196;6.204;2024-02-28T15:25:01;15.50;54.90
49132;DHT22;35149;51.196;6.204;2024-02-28T15:27:28;15.50;55.00
49132;DHT22;35149;51.196;6.204;2024-02-28T15:29:55;15.50;54.60
49132;DHT22;35149;51.196;6.204;2024-02-28T15:32:22;15.40;54.50
49132;DHT22;35149;51.196;6.204;2024-02-28T15:34:49;15.40;54.60
49132;DHT22;35149;51.196;6.204;2024-02-28T15:37:16;15.30;54.50
49132;DHT22;35149;51.196;6.204;2024-02-28T15:39:42;15.20;54.40
49132;DHT22;35149;51.196;6.204;2024-02-28T15:42:11;15.10;54.60